Time;durP1;ratioP1;P1;durP2;ratioP2;P2;SDS_P1;SDS_P2;PMS_P1;PMS_P2;Temp;Humidity;BMP_temperature;BMP_pressure;BME280_temperature;BME280_humidity;BME280_pressure;Samples;Min_cycle;Max_cycle;Signal;HPM_P1;HPM_P2
2023/06/01 00:01:55;;;;;;;7.32;5.60;;;;;;;15.26;100.00;94982.28;5062089;28;20178;-80
2023/06/01 00:04:20;;;;;;;11.32;6.50;;;;;;;15.31;100.00;94988.47;5054351;28;20166;-80
2023/06/01 00:06:45;;;;;;;9.95;6.47;;;;;;;15.05;100.00;94941.31;5054033;28;20175;-80
2023/06/01 00:09:11;;;;;;;16.92;6.97;;;;;;;15.28;100.00;94978.38;5054285;28;20159;-79
2023/06/01 00:11:36;;;;;;;12.73;6.70;;;;;;;15.22;100.00;94975.88;5061705;28;20657;-79
2023/06/01 00:14:02;;;;;;;11.95;6.80;;;;;;;14.78;100.00;94913.75;5065192;28;20624;-79
2023/06/01 00:16:30;;;;;;;9.13;6.90;;;;;;;15.21;100.00;94979.56;5064928;28;20199;-79
2023/06/01 00:18:57;;;;;;;15.95;6.70;;;;;;;15.04;100.00;94982.94;5062070;28;20577;-79
2023/06/01 00:21:23;;;;;;;11.40;6.45;;;;;;;14.98;100.00;94973.25;5063527;28;20175;-80
2023/06/01 00:23:49;;;;;;;12.83;8.07;;;;;;;14.93;100.00;94972.38;5064459;28;20462;-79
2023/06/01 00:26:15;;;;;;;11.95;7.00;;;;;;;14.84;100.00;94961.31;5064659;28;20892;-79
2023/06/01 00:28:41;;;;;;;10.40;6.72;;;;;;;14.75;100.00;94961.91;5064724;28;20202;-79
2023/06/01 00:31:06;;;;;;;9.32;6.22;;;;;;;14.87;100.00;94974.13;5062229;28;20220;-79
2023/06/01 00:33:31;;;;;;;10.75;6.72;;;;;;;14.85;100.00;94965.59;5057487;28;20182;-79
2023/06/01 00:35:57;;;;;;;11.38;6.03;;;;;;;14.95;100.00;94980.91;5062171;28;20245;-79
2023/06/01 00:38:22;;;;;;;12.20;6.82;;;;;;;14.74;100.00;94947.88;5061071;28;20688;-79
2023/06/01 00:40:51;;;;;;;11.95;5.88;;;;;;;15.00;100.00;94983.63;5064118;28;20174;-79
2023/06/01 00:43:17;;;;;;;8.02;5.93;;;;;;;15.00;100.00;94979.16;5053889;28;20649;-79
2023/06/01 00:45:43;;;;;;;10.35;6.70;;;;;;;14.85;100.00;94951.53;5057413;28;20249;-80
2023/06/01 00:48:08;;;;;;;10.35;6.82;;;;;;;14.68;100.00;94922.31;5061794;28;20210;-79
2023/06/01 00:50:35;;;;;;;10.60;7.07;;;;;;;15.00;100.00;94975.69;5060551;28;20210;-79
2023/06/01 00:53:04;;;;;;;16.02;6.75;;;;;;;14.99;100.00;94974.88;5061109;28;20254;-79
2023/06/01 00:55:30;;;;;;;10.52;5.95;;;;;;;14.77;100.00;94930.69;5072137;28;20228;-79
2023/06/01 00:57:55;;;;;;;10.73;6.72;;;;;;;14.98;100.00;94977.75;5071338;28;20612;-79
2023/06/01 01:00:22;;;;;;;12.03;7.47;;;;;;;14.81;100.00;94974.22;5061110;28;20408;-79
2023/06/01 01:02:48;;;;;;;9.93;6.88;;;;;;;14.75;100.00;94980.47;5064141;28;20181;-79
2023/06/01 01:05:15;;;;;;;9.15;7.60;;;;;;;14.87;100.00;94979.44;5056828;28;20689;-79
2023/06/01 01:07:41;;;;;;;13.40;8.40;;;;;;;14.99;100.00;94976.72;5056939;28;20257;-79
2023/06/01 01:10:25;;;;;;;23.65;8.90;;;;;;;15.07;100.00;94986.97;5052538;28;20185;-79
2023/06/01 01:12:59;;;;;;;30.30;8.88;;;;;;;15.16;100.00;94987.38;5056580;28;20171;-79
2023/06/01 01:15:46;;;;;;;67.80;14.32;;;;;;;15.21;100.00;94988.31;5056782;28;20201;-79
2023/06/01 01:18:27;;;;;;;37.67;13.43;;;;;;;15.27;100.00;94986.56;5059790;28;20306;-79
2023/06/01 01:21:00;;;;;;;23.30;11.02;;;;;;;15.28;100.00;94983.69;5072454;28;20175;-79
2023/06/01 01:23:32;;;;;;;18.67;9.90;;;;;;;15.37;100.00;94987.56;5068284;28;20604;-79
2023/06/01 01:26:18;;;;;;;20.23;10.43;;;;;;;15.40;100.00;94986.25;5065354;28;20193;-79
2023/06/01 01:28:51;;;;;;;15.88;8.50;;;;;;;15.43;100.00;94980.50;5056493;28;20171;-79
2023/06/01 01:31:22;;;;;;;76.93;10.80;;;;;;;15.42;100.00;94985.00;5060481;28;20663;-79
2023/06/01 01:33:48;;;;;;;93.43;10.50;;;;;;;15.33;100.00;94978.44;5060639;28;20651;-79
2023/06/01 01:36:15;;;;;;;86.60;13.02;;;;;;;15.23;100.00;94991.50;5062848;28;20469;-79
2023/06/01 01:38:41;;;;;;;131.15;15.20;;;;;;;15.19;100.00;94993.03;5060038;28;20484;-79
2023/06/01 01:41:06;;;;;;;112.00;11.40;;;;;;;14.90;100.00;94941.81;5058320;28;20182;-79
2023/06/01 01:43:32;;;;;;;20.33;8.70;;;;;;;15.17;100.00;94992.47;5062680;28;20223;-79
2023/06/01 01:46:10;;;;;;;17.42;8.65;;;;;;;15.14;100.00;94984.97;5060397;28;20214;-80
2023/06/01 01:48:43;;;;;;;32.33;9.70;;;;;;;15.12;100.00;94987.06;5062085;28;20260;-79
2023/06/01 01:51:19;;;;;;;86.80;10.77;;;;;;;14.92;100.00;94991.97;5064497;28;20175;-79
2023/06/01 01:53:45;;;;;;;48.73;9.07;;;;;;;14.71;100.00;94980.13;5064054;28;20547;-79
2023/06/01 01:56:13;;;;;;;15.50;8.27;;;;;;;14.72;100.00;94990.50;5063036;28;20229;-79
2023/06/01 01:58:40;;;;;;;15.13;8.50;;;;;;;14.78;100.00;94972.88;5063019;28;20649;-79
2023/06/01 02:01:07;;;;;;;27.13;10.37;;;;;;;14.81;100.00;94979.53;5059906;28;20897;-79
2023/06/01 02:03:33;;;;;;;27.50;9.95;;;;;;;14.80;100.00;94964.66;5060867;28;20174;-79
2023/06/01 02:05:58;;;;;;;17.60;9.70;;;;;;;14.95;100.00;94983.56;5059866;28;20478;-79
2023/06/01 02:08:24;;;;;;;13.82;8.52;;;;;;;14.73;100.00;94944.41;5052214;28;20266;-79
2023/06/01 02:10:49;;;;;;;12.43;7.72;;;;;;;15.01;100.00;94983.41;5062772;28;20549;-80
2023/06/01 02:13:15;;;;;;;31.92;8.38;;;;;;;15.07;100.00;94997.56;5058107;28;20186;-79
2023/06/01 02:15:40;;;;;;;18.48;9.63;;;;;;;15.01;100.00;94990.56;5060594;28;20174;-79
2023/06/01 02:18:07;;;;;;;19.63;9.25;;;;;;;15.07;100.00;95003.69;5056849;28;20246;-79
2023/06/01 02:20:32;;;;;;;27.40;10.00;;;;;;;15.06;100.00;94994.09;5055829;28;20653;-79
2023/06/01 02:22:58;;;;;;;19.02;10.40;;;;;;;14.91;100.00;94975.25;5055710;28;20457;-79
2023/06/01 02:25:23;;;;;;;21.98;9.80;;;;;;;15.08;100.00;95000.00;5067185;28;20174;-79
2023/06/01 02:27:48;;;;;;;14.65;9.30;;;;;;;15.09;100.00;95000.78;5066793;28;20178;-80
2023/06/01 02:30:14;;;;;;;13.52;8.73;;;;;;;15.10;100.00;95002.41;5059423;28;20313;-80
2023/06/01 02:32:40;;;;;;;11.48;8.50;;;;;;;15.00;100.00;94981.78;5063738;28;20559;-79
2023/06/01 02:35:06;;;;;;;26.13;9.82;;;;;;;15.14;100.00;94990.28;5072531;28;20209;-80
2023/06/01 02:37:32;;;;;;;16.63;8.75;;;;;;;15.11;100.00;95001.38;5055574;28;20650;-79
2023/06/01 02:39:57;;;;;;;14.07;8.30;;;;;;;14.95;100.00;94979.06;5064350;28;20171;-80
2023/06/01 02:42:23;;;;;;;14.50;9.27;;;;;;;15.09;100.00;95000.78;5065430;28;20563;-80
2023/06/01 02:44:48;;;;;;;14.90;8.77;;;;;;;15.08;100.00;95001.81;5066411;28;20167;-80
2023/06/01 02:47:13;;;;;;;22.02;7.90;;;;;;;15.05;100.00;95004.94;5060850;28;20179;-79
2023/06/01 02:49:39;;;;;;;16.08;8.43;;;;;;;15.04;100.00;95000.69;5055553;28;20623;-79
2023/06/01 02:52:05;;;;;;;15.20;8.87;;;;;;;14.95;100.00;94981.72;5055517;28;20159;-79
2023/06/01 02:54:30;;;;;;;13.55;8.63;;;;;;;15.09;100.00;95000.78;5056717;28;20179;-79
2023/06/01 02:56:55;;;;;;;11.52;8.60;;;;;;;15.01;100.00;94987.91;5065633;28;20198;-80
2023/06/01 02:59:21;;;;;;;18.13;8.88;;;;;;;15.04;100.00;95004.16;5062570;28;20174;-79
2023/06/01 03:01:46;;;;;;;15.57;7.28;;;;;;;14.96;100.00;95006.38;5063323;28;20256;-80
2023/06/01 03:04:13;;;;;;;30.20;9.25;;;;;;;14.41;100.00;94990.06;5070912;28;20413;-80
2023/06/01 03:06:39;;;;;;;29.33;9.88;;;;;;;14.32;100.00;95000.16;5074487;28;20493;-79
2023/06/01 03:09:05;;;;;;;32.78;10.70;;;;;;;14.41;100.00;94990.06;5064017;28;20202;-79
2023/06/01 03:11:30;;;;;;;27.65;9.10;;;;;;;14.50;100.00;94994.78;5060834;28;20646;-79
2023/06/01 03:13:59;;;;;;;14.70;8.63;;;;;;;14.57;100.00;94997.31;5069938;28;20182;-80
2023/06/01 03:16:25;;;;;;;32.92;9.02;;;;;;;14.67;100.00;94995.69;5063817;28;20206;-80
2023/06/01 03:18:52;;;;;;;30.35;10.02;;;;;;;14.54;100.00;95006.53;5065026;28;20520;-79
2023/06/01 03:21:17;;;;;;;66.50;10.75;;;;;;;14.31;100.00;95009.16;5065521;28;20920;-79
2023/06/01 03:23:43;;;;;;;34.80;8.50;;;;;;;14.10;100.00;94980.56;5066171;28;20231;-79
2023/06/01 03:26:18;;;;;;;101.85;13.13;;;;;;;14.23;100.00;95009.50;5064131;28;20442;-79
2023/06/01 03:28:44;;;;;;;68.95;12.00;;;;;;;13.76;100.00;94959.13;5066857;28;20417;-79
2023/06/01 03:31:12;;;;;;;83.20;9.97;;;;;;;13.98;100.00;95012.34;5064830;28;20255;-79
2023/06/01 03:33:38;;;;;;;45.90;10.73;;;;;;;13.76;100.00;94947.75;5065853;28;20198;-79
2023/06/01 03:36:04;;;;;;;126.03;63.23;;;;;;;14.06;100.00;94993.47;5074789;28;20213;-80
2023/06/01 03:38:30;;;;;;;104.57;31.88;;;;;;;13.95;100.00;94987.13;5073308;28;20843;-80
2023/06/01 03:40:55;;;;;;;88.35;21.23;;;;;;;13.97;100.00;95005.44;5073304;28;20409;-80
2023/06/01 03:43:21;;;;;;;108.97;13.90;;;;;;;14.02;100.00;95002.09;5074490;28;20159;-80
2023/06/01 03:45:46;;;;;;;34.58;11.60;;;;;;;14.08;100.00;94974.72;5074149;28;20170;-81
2023/06/01 03:48:11;;;;;;;57.43;15.27;;;;;;;14.38;100.00;95012.47;5072823;28;20175;-80
2023/06/01 03:50:37;;;;;;;92.53;12.00;;;;;;;14.44;100.00;95000.22;5065097;28;20182;-80
2023/06/01 03:53:02;;;;;;;14.82;9.05;;;;;;;14.61;100.00;95024.97;5059543;28;20642;-81
2023/06/01 03:55:29;;;;;;;27.70;9.40;;;;;;;14.42;100.00;94973.16;5056453;28;20205;-81
2023/06/01 03:57:55;;;;;;;100.53;11.48;;;;;;;14.73;100.00;95025.75;5058076;28;20447;-81
2023/06/01 04:00:22;;;;;;;21.50;8.93;;;;;;;14.76;100.00;95027.13;5054133;28;20237;-81
2023/06/01 04:02:54;;;;;;;38.17;10.00;;;;;;;14.78;100.00;95023.22;5054113;28;20201;-81
2023/06/01 04:05:21;;;;;;;48.17;10.20;;;;;;;14.52;100.00;94973.38;5068106;28;20240;-81
2023/06/01 04:07:51;;;;;;;42.20;11.40;;;;;;;14.52;100.00;94979.47;5065231;28;20427;-80
2023/06/01 04:10:17;;;;;;;26.53;11.13;;;;;;;14.73;100.00;94996.59;5062583;28;20178;-80
2023/06/01 04:12:45;;;;;;;42.17;12.20;;;;;;;14.90;100.00;95023.19;5069061;28;20488;-79
2023/06/01 04:15:12;;;;;;;37.17;11.07;;;;;;;14.70;100.00;94984.59;5073965;28;20162;-80
2023/06/01 04:17:38;;;;;;;27.83;10.30;;;;;;;14.82;100.00;95015.59;5073174;28;20260;-80
2023/06/01 04:20:06;;;;;;;17.23;9.20;;;;;;;14.94;100.00;95027.81;5073503;28;20159;-80
2023/06/01 04:22:32;;;;;;;14.98;10.25;;;;;;;14.91;100.00;95027.47;5073296;28;20398;-80
2023/06/01 04:24:57;;;;;;;26.35;9.45;;;;;;;14.99;100.00;95035.84;5073843;28;20178;-80
2023/06/01 04:27:24;;;;;;;18.95;9.10;;;;;;;15.02;100.00;95024.78;5073640;28;20212;-80
2023/06/01 04:29:50;;;;;;;16.55;9.10;;;;;;;15.00;100.00;95034.00;5073191;28;20155;-81
2023/06/01 04:32:21;;;;;;;16.88;9.35;;;;;;;14.86;100.00;94987.59;5073299;28;20617;-80
2023/06/01 04:34:49;;;;;;;13.32;8.50;;;;;;;15.08;100.00;95017.75;5073228;28;20210;-80
2023/06/01 04:37:19;;;;;;;24.77;9.57;;;;;;;15.14;100.00;95039.84;5073208;28;20194;-81
2023/06/01 04:39:48;;;;;;;17.75;9.00;;;;;;;15.13;100.00;95032.97;5073143;28;20147;-80
2023/06/01 04:42:16;;;;;;;15.57;8.82;;;;;;;15.03;100.00;95022.94;5072981;28;20159;-81
2023/06/01 04:44:42;;;;;;;17.45;9.68;;;;;;;15.08;100.00;95031.81;5073100;28;20249;-80
2023/06/01 04:47:09;;;;;;;20.08;9.55;;;;;;;15.19;100.00;95037.31;5073060;28;20201;-81
2023/06/01 04:49:36;;;;;;;22.50;9.45;;;;;;;15.19;100.00;95046.09;5066085;28;20225;-81
2023/06/01 04:52:04;;;;;;;15.38;9.00;;;;;;;15.19;100.00;95043.44;5071017;28;20170;-81
2023/06/01 04:54:29;;;;;;;18.20;9.65;;;;;;;15.03;100.00;95015.81;5064030;28;20167;-80
2023/06/01 04:56:55;;;;;;;18.35;10.02;;;;;;;15.13;100.00;95027.66;5063818;28;20608;-80
2023/06/01 04:59:21;;;;;;;17.30;9.60;;;;;;;15.21;100.00;95041.34;5071444;28;20177;-82
2023/06/01 05:01:46;;;;;;;19.20;9.45;;;;;;;15.11;100.00;95051.75;5072708;28;20189;-81
2023/06/01 05:04:12;;;;;;;29.98;11.90;;;;;;;15.05;100.00;95042.88;5071395;28;20171;-81
2023/06/01 05:06:37;;;;;;;17.85;10.50;;;;;;;15.08;100.00;95045.06;5073086;28;20169;-81
2023/06/01 05:09:04;;;;;;;19.65;10.38;;;;;;;15.16;100.00;95043.88;5072627;28;20182;-80
2023/06/01 05:11:30;;;;;;;20.08;10.27;;;;;;;15.04;100.00;95008.66;5072589;28;20541;-81
2023/06/01 05:14:01;;;;;;;14.70;9.90;;;;;;;15.09;100.00;94992.84;5063685;28;20182;-80
2023/06/01 05:16:27;;;;;;;20.95;11.48;;;;;;;15.33;100.00;95022.75;5063624;28;20757;-81
2023/06/01 05:18:52;;;;;;;20.27;11.02;;;;;;;15.31;100.00;95006.25;5063293;28;20253;-81
2023/06/01 05:21:18;;;;;;;20.55;11.90;;;;;;;15.71;100.00;95052.16;5072693;28;20198;-80
2023/06/01 05:23:43;;;;;;;19.88;11.90;;;;;;;15.76;100.00;95054.91;5072397;28;20161;-81
2023/06/01 05:26:08;;;;;;;18.48;11.93;;;;;;;15.78;100.00;95031.59;5072422;28;20620;-82
2023/06/01 05:28:35;;;;;;;23.98;11.70;;;;;;;16.11;100.00;95045.94;5072746;28;20184;-80
2023/06/01 05:31:01;;;;;;;18.33;12.00;;;;;;;16.05;100.00;95015.06;5061262;28;20606;-82
2023/06/01 05:33:29;;;;;;;19.58;13.05;;;;;;;16.26;99.45;95048.06;5061149;28;20692;-80
2023/06/01 05:35:55;;;;;;;17.30;11.18;;;;;;;16.18;97.67;95057.22;5060909;28;20195;-80
2023/06/01 05:38:21;;;;;;;15.20;10.68;;;;;;;16.03;97.91;95049.81;5070149;28;20174;-81
2023/06/01 05:40:46;;;;;;;16.83;11.27;;;;;;;15.99;98.51;95046.03;5052281;28;20246;-82
2023/06/01 05:43:11;;;;;;;21.38;12.05;;;;;;;16.02;99.73;95044.72;5052126;28;20235;-82
2023/06/01 05:45:37;;;;;;;22.88;13.52;;;;;;;16.27;100.00;95047.81;5051439;28;20562;-82
2023/06/01 05:48:03;;;;;;;17.60;11.80;;;;;;;15.90;99.59;94999.69;5052394;28;20156;-82
2023/06/01 05:50:28;;;;;;;21.70;13.10;;;;;;;16.19;99.25;95043.72;5052152;28;20168;-85
2023/06/01 05:52:55;;;;;;;22.85;13.88;;;;;;;15.86;98.97;94982.59;5051699;28;20159;-85
2023/06/01 05:55:20;;;;;;;19.90;13.77;;;;;;;16.50;98.64;95004.34;5051942;28;20181;-85
2023/06/01 05:57:45;;;;;;;18.23;12.05;;;;;;;17.27;97.94;95012.31;5061699;28;20632;-85
2023/06/01 06:00:15;;;;;;;19.17;13.75;;;;;;;18.02;92.32;95060.25;5061709;28;20174;-85
2023/06/01 06:02:44;;;;;;;17.70;11.45;;;;;;;17.96;89.66;95009.84;5065491;28;20170;-85
2023/06/01 06:05:09;;;;;;;18.88;12.00;;;;;;;18.24;89.10;95016.78;5060766;28;20261;-85
2023/06/01 06:07:35;;;;;;;22.45;12.55;;;;;;;18.72;87.91;95058.47;5050744;28;20545;-85
2023/06/01 06:10:01;;;;;;;20.80;13.68;;;;;;;18.51;87.24;95009.47;5052143;28;20178;-86
2023/06/01 06:12:27;;;;;;;22.85;14.10;;;;;;;18.52;86.40;94978.28;5052133;28;20186;-85
2023/06/01 06:14:53;;;;;;;26.38;15.50;;;;;;;18.98;87.53;95017.56;5052005;28;20159;-83
2023/06/01 06:17:19;;;;;;;20.15;13.10;;;;;;;19.10;86.08;95018.16;5050490;28;20349;-81
2023/06/01 06:19:45;;;;;;;21.15;12.95;;;;;;;19.20;82.43;95068.91;5051983;28;20697;-81
2023/06/01 06:22:11;;;;;;;17.42;12.48;;;;;;;19.25;84.76;95062.00;5062895;28;20258;-81
2023/06/01 06:24:36;;;;;;;20.08;12.35;;;;;;;19.42;83.82;95052.75;5061645;28;20220;-81
2023/06/01 06:27:03;;;;;;;22.73;14.07;;;;;;;19.70;84.99;95024.03;5052027;28;20186;-81
2023/06/01 06:29:29;;;;;;;16.48;11.35;;;;;;;20.76;83.58;95068.81;5051958;28;20604;-80
2023/06/01 06:31:54;;;;;;;18.05;11.40;;;;;;;20.91;75.77;95025.97;5051824;28;20701;-80
2023/06/01 06:34:20;;;;;;;23.30;11.65;;;;;;;21.47;77.32;95037.31;5051625;28;20175;-80
2023/06/01 06:36:46;;;;;;;17.80;11.20;;;;;;;21.93;72.30;95072.75;5051827;28;20195;-80
2023/06/01 06:39:11;;;;;;;17.08;10.98;;;;;;;22.15;73.48;95073.19;5050305;28;20608;-80
2023/06/01 06:41:41;;;;;;;17.30;11.02;;;;;;;22.25;71.55;95074.19;5051723;28;20171;-81
2023/06/01 06:44:07;;;;;;;19.40;11.70;;;;;;;22.08;70.87;95067.34;5050801;28;20217;-81
2023/06/01 06:46:32;;;;;;;15.82;10.20;;;;;;;21.89;72.67;95068.22;5051603;28;20182;-82
2023/06/01 06:48:58;;;;;;;15.30;11.20;;;;;;;22.09;75.01;95066.25;5051484;28;20286;-82
2023/06/01 06:51:23;;;;;;;21.60;12.77;;;;;;;22.38;73.31;95060.19;5051858;28;20163;-82
2023/06/01 06:53:57;;;;;;;18.90;11.32;;;;;;;22.48;71.58;95063.59;5051307;28;20313;-82
2023/06/01 06:56:23;;;;;;;15.70;10.05;;;;;;;22.68;71.71;95061.81;5060054;28;20190;-82
2023/06/01 06:58:48;;;;;;;12.93;9.68;;;;;;;22.88;68.15;95072.41;5051211;28;20172;-83
2023/06/01 07:01:14;;;;;;;15.07;10.52;;;;;;;22.46;67.93;95033.56;5059822;28;20647;-84
2023/06/01 07:03:40;;;;;;;16.17;11.25;;;;;;;22.42;68.46;95045.91;5054925;28;20183;-84
2023/06/01 07:06:06;;;;;;;14.15;10.00;;;;;;;22.31;69.41;95028.31;5069732;28;20526;-84
2023/06/01 07:08:34;;;;;;;13.10;9.00;;;;;;;22.54;69.56;95065.16;5064654;28;20185;-81
2023/06/01 07:11:00;;;;;;;13.23;9.38;;;;;;;22.78;69.69;95062.56;5075229;28;20155;-82
2023/06/01 07:13:25;;;;;;;14.90;9.05;;;;;;;22.95;68.60;95065.63;5069235;28;20681;-82
2023/06/01 07:15:52;;;;;;;17.10;8.48;;;;;;;23.21;66.26;95065.38;5055176;28;20179;-79
2023/06/01 07:18:18;;;;;;;18.08;8.68;;;;;;;23.14;66.91;95063.03;5063551;28;20609;-79
2023/06/01 07:20:43;;;;;;;15.93;9.15;;;;;;;23.01;67.67;95052.94;5063707;28;20180;-79
2023/06/01 07:23:09;;;;;;;11.32;7.95;;;;;;;23.26;66.20;95054.59;5063537;28;20175;-79
2023/06/01 07:25:34;;;;;;;15.27;8.68;;;;;;;23.62;67.07;95053.09;5063744;28;20552;-79
2023/06/01 07:28:00;;;;;;;20.65;11.43;;;;;;;23.99;67.60;95051.56;5054552;28;20258;-81
2023/06/01 07:30:25;;;;;;;19.05;12.70;;;;;;;24.22;67.69;95053.41;5054821;28;20220;-80
2023/06/01 07:32:50;;;;;;;16.88;10.52;;;;;;;24.64;69.39;95057.09;5054702;28;20186;-80
2023/06/01 07:35:16;;;;;;;20.08;12.35;;;;;;;24.90;67.92;95047.50;5054415;28;20267;-81
2023/06/01 07:37:41;;;;;;;21.98;12.18;;;;;;;25.12;66.98;95042.28;5054299;28;20198;-81
2023/06/01 07:40:07;;;;;;;22.85;14.38;;;;;;;24.90;63.96;95011.69;5054749;28;20163;-81
2023/06/01 07:42:33;;;;;;;26.30;15.70;;;;;;;24.70;63.52;95045.94;5054576;28;20175;-81
2023/06/01 07:44:58;;;;;;;23.90;14.38;;;;;;;24.47;67.99;95008.38;5062972;28;20240;-81
2023/06/01 07:47:25;;;;;;;20.33;13.57;;;;;;;24.62;68.55;95002.72;5054144;28;20168;-81
2023/06/01 07:49:51;;;;;;;26.58;13.70;;;;;;;25.02;66.56;95041.66;5061109;28;21008;-80
2023/06/01 07:52:17;;;;;;;24.52;15.10;;;;;;;24.79;65.07;95003.78;5074026;28;20166;-80
2023/06/01 07:54:42;;;;;;;23.42;13.57;;;;;;;25.12;67.67;95034.19;5074075;28;20180;-80
2023/06/01 07:57:08;;;;;;;18.50;14.18;;;;;;;25.19;66.08;95034.59;5073689;28;20198;-80
2023/06/01 07:59:33;;;;;;;21.05;14.68;;;;;;;25.21;66.25;95030.81;5062912;28;20171;-80
2023/06/01 08:02:00;;;;;;;26.45;16.45;;;;;;;25.12;66.79;95015.31;5063722;28;20202;-79
2023/06/01 08:04:26;;;;;;;27.35;15.60;;;;;;;25.26;65.78;95022.59;5061881;28;20179;-82
2023/06/01 08:06:55;;;;;;;20.80;14.32;;;;;;;25.05;64.47;94998.75;5071684;28;20186;-80
2023/06/01 08:09:23;;;;;;;29.52;14.48;;;;;;;25.38;65.49;95012.94;5062841;28;20181;-81
2023/06/01 08:11:49;;;;;;;21.58;13.93;;;;;;;25.37;64.46;95000.56;5062826;28;20159;-81
2023/06/01 08:14:15;;;;;;;24.10;14.68;;;;;;;25.41;61.26;95027.72;5062593;28;20236;-81
2023/06/01 08:16:41;;;;;;;24.80;14.63;;;;;;;25.42;66.23;95022.03;5063863;28;20207;-81
2023/06/01 08:19:07;;;;;;;23.60;14.95;;;;;;;25.61;63.81;95030.03;5073424;28;20605;-81
2023/06/01 08:21:34;;;;;;;23.45;12.63;;;;;;;25.64;64.39;95015.16;5066514;28;20182;-81
2023/06/01 08:24:01;;;;;;;20.85;13.95;;;;;;;25.62;63.93;95017.34;5071202;28;20171;-80
2023/06/01 08:26:28;;;;;;;21.95;12.13;;;;;;;25.53;64.91;95017.22;5062574;28;20206;-80
2023/06/01 08:28:53;;;;;;;24.80;13.77;;;;;;;25.34;64.26;94992.28;5059351;28;20202;-83
2023/06/01 08:31:23;;;;;;;17.35;12.70;;;;;;;25.60;64.50;95001.47;5064316;28;20200;-83
2023/06/01 08:33:50;;;;;;;17.90;12.40;;;;;;;25.55;62.13;94990.75;5052400;28;20270;-84
2023/06/01 08:36:17;;;;;;;24.25;13.82;;;;;;;25.63;61.86;94992.78;5053226;28;20198;-81
2023/06/01 08:38:43;;;;;;;21.73;14.02;;;;;;;25.66;60.48;95002.16;5056566;28;20265;-80
2023/06/01 08:41:23;;;;;;;19.08;12.30;;;;;;;25.39;60.46;94997.56;5062017;28;20254;-81
2023/06/01 08:43:55;;;;;;;19.90;12.00;;;;;;;25.37;60.12;95002.44;5060537;28;20171;-81
2023/06/01 08:46:22;;;;;;;17.50;12.23;;;;;;;25.51;62.83;94997.88;5061999;28;20197;-80
2023/06/01 08:48:53;;;;;;;21.90;12.07;;;;;;;25.62;63.99;94975.00;5053025;28;20558;-81
2023/06/01 08:51:18;;;;;;;20.00;12.15;;;;;;;26.01;63.19;94985.22;5053284;28;20163;-80
2023/06/01 08:53:46;;;;;;;20.52;12.45;;;;;;;26.28;61.72;94984.34;5052787;28;20233;-81
2023/06/01 08:56:12;;;;;;;20.48;12.13;;;;;;;26.38;61.03;94967.09;5059412;28;20199;-81
2023/06/01 08:58:40;;;;;;;21.38;13.15;;;;;;;25.95;62.35;94947.84;5057927;28;20162;-81
2023/06/01 09:01:06;;;;;;;20.02;13.10;;;;;;;26.13;64.74;94939.56;5066237;28;20163;-80
2023/06/01 09:03:31;;;;;;;21.13;12.93;;;;;;;26.70;62.39;94974.94;5061153;28;20171;-79
2023/06/01 09:05:57;;;;;;;23.52;12.70;;;;;;;26.96;60.67;94967.78;5062206;28;20574;-80
2023/06/01 09:08:24;;;;;;;21.45;13.55;;;;;;;27.05;57.54;94975.94;5066139;28;20174;-81
2023/06/01 09:10:49;;;;;;;21.13;12.63;;;;;;;26.72;58.96;94936.81;5063176;28;20646;-81
2023/06/01 09:13:48;;;;;;;21.38;12.98;;;;;;;26.67;57.54;94943.13;5061898;28;20235;-81
2023/06/01 09:16:13;;;;;;;18.23;11.85;;;;;;;26.47;59.72;94959.84;5069909;28;20645;-81
2023/06/01 09:18:59;;;;;;;20.17;12.20;;;;;;;26.55;58.74;94968.00;5066389;28;20214;-81
2023/06/01 09:21:24;;;;;;;18.67;10.88;;;;;;;26.39;58.01;94949.78;5051620;28;20248;-83
2023/06/01 09:23:50;;;;;;;14.60;9.45;;;;;;;26.30;59.06;94971.31;5059621;28;20626;-81
2023/06/01 09:26:17;;;;;;;14.48;8.52;;;;;;;25.89;58.03;94968.75;5072916;28;20173;-81
2023/06/01 09:28:52;;;;;;;14.52;9.65;;;;;;;25.39;59.59;94957.13;5072488;28;20159;-82
2023/06/01 09:31:46;;;;;;;13.25;8.77;;;;;;;25.29;63.42;94936.56;5072305;28;20645;-79
2023/06/01 09:34:18;;;;;;;15.27;9.60;;;;;;;25.58;66.89;94943.53;5067557;28;20174;-81
2023/06/01 09:36:44;;;;;;;18.63;8.70;;;;;;;25.57;66.39;94929.25;5067012;28;20214;-83
2023/06/01 09:39:12;;;;;;;11.88;7.43;;;;;;;25.89;65.05;94945.25;5062941;28;20254;-83
2023/06/01 09:41:50;;;;;;;11.95;6.43;;;;;;;25.97;64.33;94945.63;5048838;28;20179;-83
2023/06/01 09:44:35;;;;;;;12.93;6.75;;;;;;;25.89;62.48;94906.69;5057525;28;20178;-84
2023/06/01 09:47:06;;;;;;;15.88;7.10;;;;;;;25.94;59.62;94930.88;5065698;28;20633;-83
2023/06/01 09:49:34;;;;;;;11.95;7.53;;;;;;;25.55;60.95;94936.81;5060521;28;20245;-86
2023/06/01 09:52:06;;;;;;;12.75;6.88;;;;;;;25.62;64.38;94929.16;5061252;28;20175;-84
2023/06/01 09:54:51;;;;;;;9.10;6.85;;;;;;;25.68;63.91;94919.88;5069441;28;20224;-83
2023/06/01 09:57:24;;;;;;;13.23;7.20;;;;;;;25.47;60.50;94921.38;5062616;28;20190;-82
2023/06/01 09:59:50;;;;;;;9.45;6.50;;;;;;;24.83;62.45;94880.88;5062572;28;20174;-82
2023/06/01 10:02:18;;;;;;;12.43;6.00;;;;;;;24.66;60.44;94915.66;5058530;28;20640;-81
2023/06/01 10:04:58;;;;;;;10.40;6.32;;;;;;;24.71;61.60;94910.19;5057934;28;20174;-82
2023/06/01 10:07:25;;;;;;;19.52;6.85;;;;;;;24.50;63.19;94911.66;5065170;28;20640;-82
2023/06/01 10:09:55;;;;;;;11.70;7.05;;;;;;;24.38;65.22;94904.06;5051396;28;20179;-81
2023/06/01 10:12:21;;;;;;;11.85;7.10;;;;;;;24.31;66.82;94895.56;5051582;28;20229;-81
2023/06/01 10:14:49;;;;;;;9.32;5.00;;;;;;;23.94;60.94;94911.78;5051809;28;20626;-81
2023/06/01 10:17:16;;;;;;;9.07;5.15;;;;;;;23.86;61.69;94915.13;5051382;28;20192;-83
2023/06/01 10:19:42;;;;;;;6.55;4.55;;;;;;;23.47;60.43;94907.31;5051433;28;20340;-82
2023/06/01 10:22:10;;;;;;;8.25;4.75;;;;;;;23.43;59.10;94907.13;5050427;28;20668;-83
2023/06/01 10:24:40;;;;;;;7.80;3.92;;;;;;;23.53;58.79;94911.56;5051232;28;20177;-82
2023/06/01 10:27:40;;;;;;;9.95;6.28;;;;;;;23.44;59.18;94918.69;5050599;28;20185;-81
2023/06/01 10:30:09;;;;;;;9.18;5.68;;;;;;;23.58;62.19;94914.19;5056527;28;20695;-81
2023/06/01 10:32:37;;;;;;;7.07;3.85;;;;;;;23.44;57.66;94919.44;5069307;28;20551;-81
2023/06/01 10:35:04;;;;;;;6.65;4.00;;;;;;;23.15;59.60;94910.72;5068999;28;20297;-81
2023/06/01 10:37:30;;;;;;;6.25;4.20;;;;;;;23.04;59.18;94918.09;5052206;28;20201;-81
2023/06/01 10:40:14;;;;;;;6.07;4.28;;;;;;;22.91;59.89;94916.13;5056072;28;20174;-83
2023/06/01 10:42:40;;;;;;;18.13;5.38;;;;;;;22.47;61.41;94903.66;5059572;28;20170;-83
2023/06/01 10:45:06;;;;;;;8.20;4.90;;;;;;;22.30;63.84;94878.34;5061773;28;20178;-84
2023/06/01 10:47:35;;;;;;;10.68;5.47;;;;;;;22.31;62.52;94907.59;5057089;28;20548;-83
2023/06/01 10:50:00;;;;;;;7.40;4.68;;;;;;;22.32;63.90;94900.31;5059675;28;20170;-82
2023/06/01 10:52:35;;;;;;;12.70;4.50;;;;;;;22.03;66.33;94849.38;5066501;28;20182;-82
2023/06/01 10:55:07;;;;;;;9.82;5.13;;;;;;;22.28;65.87;94893.94;5054560;28;20170;-82
2023/06/01 10:57:33;;;;;;;7.22;5.35;;;;;;;22.37;67.16;94887.66;5054689;28;20244;-82
2023/06/01 11:00:28;;;;;;;9.57;4.82;;;;;;;22.19;66.72;94873.09;5054769;28;20156;-82
2023/06/01 11:03:02;;;;;;;8.25;6.25;;;;;;;22.42;68.15;94882.25;5056296;28;20171;-82
2023/06/01 11:05:38;;;;;;;10.15;5.38;;;;;;;22.32;67.22;94828.69;5064758;28;20169;-82
2023/06/01 11:08:08;;;;;;;11.65;5.57;;;;;;;22.70;67.79;94867.19;5069053;28;20570;-82
2023/06/01 11:11:06;;;;;;;11.32;5.85;;;;;;;22.79;65.15;94862.00;5060268;28;20528;-82
2023/06/01 11:13:39;;;;;;;15.30;6.63;;;;;;;22.51;65.39;94831.44;5059033;28;20171;-83
2023/06/01 11:16:07;;;;;;;12.52;5.47;;;;;;;22.59;66.51;94874.53;5056480;28;20199;-83
2023/06/01 11:18:57;;;;;;;9.48;6.25;;;;;;;22.62;70.33;94857.09;5049646;28;20686;-84
2023/06/01 11:21:28;;;;;;;8.82;5.40;;;;;;;22.59;68.64;94822.75;5063661;28;20182;-86